createdAt,value
2023-06-29T00:00:32.587Z,3.88
2023-06-29T00:04:00.740Z,3.92
2023-06-29T00:07:09.189Z,3.63
2023-06-29T00:10:14.892Z,3.20
2023-06-29T00:13:20.040Z,3.30
2023-06-29T00:16:25.752Z,3.40
2023-06-29T00:19:33.659Z,3.70
2023-06-29T00:22:49.518Z,3.75
2023-06-29T00:25:54.711Z,3.72
2023-06-29T00:29:00.617Z,3.67
2023-06-29T00:32:05.964Z,4.05
2023-06-29T00:35:14.693Z,3.70
2023-06-29T00:38:22.569Z,4.15
2023-06-29T00:41:28.289Z,4.03
2023-06-29T00:44:33.452Z,4.05
2023-06-29T00:47:39.421Z,4.28
2023-06-29T00:50:45.589Z,4.03
2023-06-29T00:53:54.373Z,4.35
2023-06-29T00:57:00.809Z,4.95
2023-06-29T01:00:13.874Z,4.47
2023-06-29T01:03:19.727Z,4.35
2023-06-29T01:06:27.111Z,4.43
2023-06-29T01:09:36.673Z,4.22
2023-06-29T01:12:43.142Z,4.50
2023-06-29T01:15:49.581Z,4.95
2023-06-29T01:18:56.510Z,4.05
2023-06-29T01:22:06.473Z,4.07
2023-06-29T01:25:15.296Z,3.90
2023-06-29T01:28:20.639Z,3.92
2023-06-29T01:31:28.597Z,4.40
2023-06-29T01:34:36.301Z,4.60
2023-06-29T01:37:45.366Z,3.65
2023-06-29T01:40:53.564Z,4.30
2023-06-29T01:44:00.068Z,3.55
2023-06-29T01:47:05.293Z,4.00
2023-06-29T01:50:11.936Z,4.05
2023-06-29T01:53:17.330Z,3.85
2023-06-29T01:56:25.605Z,4.10
2023-06-29T01:59:30.833Z,4.68
2023-06-29T02:02:36.439Z,4.20
2023-06-29T02:05:42.091Z,5.20
2023-06-29T02:08:47.894Z,4.25
2023-06-29T02:11:57.752Z,3.90
2023-06-29T02:15:03.380Z,4.60
2023-06-29T02:18:09.217Z,4.43
2023-06-29T02:21:15.033Z,4.40
2023-06-29T02:24:20.482Z,4.68
2023-06-29T02:27:29.548Z,4.95
2023-06-29T02:30:35.329Z,4.10
2023-06-29T02:33:41.126Z,4.97
2023-06-29T02:36:46.242Z,4.53
2023-06-29T02:39:52.047Z,5.10
2023-06-29T02:43:00.491Z,5.25
2023-06-29T02:46:06.099Z,4.95
2023-06-29T02:49:13.334Z,4.60
2023-06-29T02:52:21.237Z,4.88
2023-06-29T02:55:26.718Z,5.20
2023-06-29T02:58:34.908Z,5.10
2023-06-29T03:01:40.174Z,4.57
2023-06-29T03:04:45.754Z,4.90
2023-06-29T03:07:51.022Z,5.05
2023-06-29T03:10:57.207Z,4.47
2023-06-29T03:14:05.299Z,4.80
2023-06-29T03:17:14.962Z,4.95
2023-06-29T03:20:21.176Z,6.55
2023-06-29T03:23:26.819Z,4.70
2023-06-29T03:26:32.993Z,4.82
2023-06-29T03:29:41.934Z,4.45
2023-06-29T03:32:49.293Z,5.25
2023-06-29T03:35:57.768Z,4.00
2023-06-29T03:39:03.001Z,4.90
2023-06-29T03:42:09.063Z,5.10
2023-06-29T03:45:19.144Z,4.53
2023-06-29T03:48:28.834Z,4.80
2023-06-29T03:51:34.009Z,4.50
2023-06-29T03:54:40.956Z,5.07
2023-06-29T03:57:46.548Z,4.50
2023-06-29T04:00:56.097Z,4.75
2023-06-29T04:04:01.729Z,4.43
2023-06-29T04:07:07.702Z,5.18
2023-06-29T04:10:13.068Z,4.55
2023-06-29T04:13:18.830Z,4.57
2023-06-29T04:16:27.172Z,4.60
2023-06-29T04:19:32.608Z,4.80
2023-06-29T04:22:38.438Z,4.18
2023-06-29T04:25:45.148Z,4.43
2023-06-29T04:28:52.052Z,4.95
2023-06-29T04:32:00.115Z,4.43
2023-06-29T04:35:05.635Z,4.22
2023-06-29T04:38:11.956Z,4.90
2023-06-29T04:41:18.556Z,4.80
2023-06-29T04:44:24.857Z,4.70
2023-06-29T04:47:34.073Z,4.22
2023-06-29T04:50:40.756Z,4.40
2023-06-29T04:53:45.977Z,4.10
2023-06-29T04:56:52.228Z,3.92
2023-06-29T04:59:57.644Z,3.85
2023-06-29T05:03:06.148Z,5.05
2023-06-29T05:06:11.392Z,4.03
2023-06-29T05:09:18.924Z,3.38
2023-06-29T05:12:24.298Z,3.50
2023-06-29T05:15:30.544Z,3.42
2023-06-29T05:18:39.459Z,3.17
2023-06-29T05:21:45.309Z,3.28
2023-06-29T05:24:50.980Z,3.50
2023-06-29T05:27:56.512Z,3.45
2023-06-29T05:31:02.042Z,3.38
2023-06-29T05:34:13.268Z,4.90
2023-06-29T05:37:21.784Z,4.03
2023-06-29T05:40:27.975Z,4.35
2023-06-29T05:43:33.243Z,3.80
2023-06-29T05:46:42.019Z,3.90
2023-06-29T05:49:50.225Z,3.50
2023-06-29T05:52:55.802Z,3.40
2023-06-29T05:56:02.135Z,3.42
2023-06-29T05:59:08.223Z,3.20
2023-06-29T06:02:13.655Z,3.55
2023-06-29T06:05:22.203Z,4.30
2023-06-29T06:08:27.324Z,3.63
2023-06-29T06:11:34.203Z,3.92
2023-06-29T06:14:39.437Z,4.10
2023-06-29T06:17:49.162Z,3.58
2023-06-29T06:20:57.098Z,3.75
2023-06-29T06:24:02.668Z,3.90
2023-06-29T06:27:09.618Z,3.92
2023-06-29T06:30:17.110Z,4.90
2023-06-29T06:33:22.411Z,4.20
2023-06-29T06:36:32.976Z,4.05
2023-06-29T06:39:40.670Z,4.38
2023-06-29T06:42:46.597Z,3.70
2023-06-29T06:45:52.321Z,4.60
2023-06-29T06:48:58.467Z,3.90
2023-06-29T06:52:07.193Z,4.07
2023-06-29T06:55:13.377Z,3.88
2023-06-29T06:58:18.926Z,5.07
2023-06-29T07:01:27.479Z,4.47
2023-06-29T07:04:32.751Z,3.85
2023-06-29T07:07:42.351Z,4.13
2023-06-29T07:10:50.150Z,3.83
2023-06-29T07:13:56.868Z,3.75
2023-06-29T07:17:03.848Z,3.88
2023-06-29T07:26:29.780Z,3.23
2023-06-29T07:29:35.269Z,4.22
2023-06-29T07:32:41.071Z,4.40
2023-06-29T07:35:48.743Z,4.22
2023-06-29T07:38:58.282Z,4.10
2023-06-29T07:42:03.422Z,2.97
2023-06-29T07:45:10.321Z,3.38
2023-06-29T07:48:15.904Z,3.90
2023-06-29T07:51:25.573Z,3.63
2023-06-29T07:54:33.686Z,3.80
2023-06-29T08:00:48.084Z,3.63
2023-06-29T08:04:02.247Z,3.90
2023-06-29T08:07:11.216Z,3.92
2023-06-29T08:10:22.416Z,2.90
2023-06-29T08:13:30.019Z,3.67
2023-06-29T08:16:38.871Z,3.83
2023-06-29T08:19:44.431Z,2.95
2023-06-29T08:22:50.307Z,2.88
2023-06-29T08:25:58.162Z,3.33
2023-06-29T08:29:03.880Z,3.00
2023-06-29T08:32:09.939Z,3.53
2023-06-29T08:35:15.810Z,3.20
2023-06-29T08:38:22.755Z,3.38
2023-06-29T08:41:31.724Z,3.65
2023-06-29T08:44:37.204Z,3.13
2023-06-29T08:47:43.495Z,3.42
2023-06-29T08:50:56.614Z,2.97
2023-06-29T08:54:04.941Z,3.53
2023-06-29T08:57:14.013Z,2.90
2023-06-29T09:00:22.001Z,2.53
2023-06-29T09:03:28.860Z,2.33
2023-06-29T09:06:42.457Z,3.30
2023-06-29T09:09:47.665Z,2.92
2023-06-29T09:12:56.540Z,2.55
2023-06-29T09:16:15.795Z,2.47
2023-06-29T09:19:21.766Z,2.50
2023-06-29T09:22:32.421Z,2.50
2023-06-29T09:25:40.377Z,2.25
2023-06-29T09:28:51.622Z,2.20
2023-06-29T09:31:57.958Z,2.95
2023-06-29T09:35:09.603Z,2.20
2023-06-29T09:38:15.791Z,2.75
2023-06-29T09:41:21.467Z,2.53
2023-06-29T09:44:30.348Z,2.83
2023-06-29T09:50:55.329Z,2.83
2023-06-29T09:54:01.369Z,2.60
2023-06-29T09:57:07.660Z,2.95
2023-06-29T10:00:17.410Z,2.90
2023-06-29T10:03:23.384Z,2.38
2023-06-29T10:06:31.914Z,2.80
2023-06-29T10:09:41.669Z,2.88
2023-06-29T10:12:47.603Z,2.70
2023-06-29T10:16:00.740Z,2.40
2023-06-29T10:19:12.846Z,2.55
2023-06-29T10:22:20.112Z,1.98
2023-06-29T10:25:26.538Z,1.60
2023-06-29T10:28:32.437Z,1.40
2023-06-29T10:31:41.510Z,1.25
2023-06-29T10:38:00.246Z,1.50
2023-06-29T10:41:09.582Z,1.77
2023-06-29T10:44:14.760Z,1.60
2023-06-29T10:47:33.569Z,1.70
2023-06-29T10:50:47.691Z,1.63
2023-06-29T10:53:56.127Z,1.60
2023-06-29T10:57:02.235Z,1.58
2023-06-29T11:00:08.634Z,1.65
2023-06-29T11:03:18.174Z,1.90
2023-06-29T11:09:50.069Z,1.70
2023-06-29T11:12:58.631Z,1.52
2023-06-29T11:16:04.299Z,1.63
2023-06-29T11:19:15.868Z,1.98
2023-06-29T11:22:22.684Z,1.90
2023-06-29T11:25:39.359Z,2.50
2023-06-29T11:28:47.358Z,1.90
2023-06-29T11:31:53.582Z,1.58
2023-06-29T11:35:05.619Z,1.48
2023-06-29T11:38:11.377Z,1.85
2023-06-29T11:41:16.618Z,1.70
2023-06-29T11:44:26.249Z,1.60
2023-06-29T11:47:33.642Z,1.60
2023-06-29T11:50:45.240Z,1.35
2023-06-29T11:53:50.696Z,1.70
2023-06-29T11:57:01.192Z,1.60
2023-06-29T12:00:10.422Z,1.63
2023-06-29T12:03:21.891Z,1.67
2023-06-29T12:06:30.406Z,1.48
2023-06-29T12:09:37.414Z,1.80
2023-06-29T12:12:44.018Z,2.10
2023-06-29T12:19:00.864Z,1.80
2023-06-29T12:22:15.283Z,1.60
2023-06-29T12:25:21.088Z,1.52
2023-06-29T12:28:30.197Z,1.70
2023-06-29T12:31:35.426Z,1.80
2023-06-29T12:34:43.411Z,1.55
2023-06-29T12:37:51.867Z,1.77
2023-06-29T12:40:58.788Z,1.70
2023-06-29T12:44:04.155Z,1.60
2023-06-29T12:47:13.580Z,1.63
2023-06-29T12:50:19.271Z,1.80
2023-06-29T12:53:28.246Z,1.73
2023-06-29T12:56:34.234Z,1.67
2023-06-29T12:59:42.058Z,1.70
2023-06-29T13:02:47.900Z,1.80
2023-06-29T13:05:56.889Z,2.13
2023-06-29T13:09:06.777Z,1.92
2023-06-29T13:12:13.406Z,1.80
2023-06-29T13:15:19.219Z,1.80
2023-06-29T13:18:26.086Z,2.08
2023-06-29T13:21:31.793Z,2.03
2023-06-29T13:24:40.704Z,1.95
2023-06-29T13:27:47.091Z,2.25
2023-06-29T13:31:02.013Z,2.20
2023-06-29T13:34:11.028Z,2.17
2023-06-29T13:37:17.593Z,2.38
2023-06-29T13:40:28.072Z,2.13
2023-06-29T13:43:35.792Z,2.60
2023-06-29T13:46:42.236Z,2.10
2023-06-29T13:49:48.227Z,2.75
2023-06-29T13:52:56.633Z,2.45
2023-06-29T13:56:04.980Z,2.92
2023-06-29T13:59:11.343Z,2.67
2023-06-29T14:02:20.534Z,2.90
2023-06-29T14:05:27.436Z,3.22
2023-06-29T14:08:36.044Z,3.28
2023-06-29T14:11:48.575Z,2.72
2023-06-29T14:14:57.020Z,2.50
2023-06-29T14:18:02.363Z,2.75
2023-06-29T14:21:10.533Z,3.47
2023-06-29T14:24:16.334Z,2.90
2023-06-29T14:27:27.213Z,3.60
2023-06-29T14:30:34.191Z,3.10
2023-06-29T14:33:40.371Z,3.40
2023-06-29T14:36:50.517Z,3.13
2023-06-29T14:39:58.610Z,3.15
2023-06-29T14:43:09.418Z,2.97
2023-06-29T14:46:16.977Z,3.70
2023-06-29T14:49:23.321Z,2.88
2023-06-29T14:52:30.754Z,3.20
2023-06-29T14:55:36.129Z,2.63
2023-06-29T14:58:52.892Z,2.65
2023-06-29T15:01:58.130Z,2.95
2023-06-29T15:05:04.115Z,2.70
2023-06-29T15:08:11.116Z,2.40
2023-06-29T15:11:19.092Z,3.10
2023-06-29T15:14:26.895Z,2.83
2023-06-29T15:17:34.477Z,2.63
2023-06-29T15:20:42.419Z,2.45
2023-06-29T15:23:49.914Z,3.08
2023-06-29T15:26:55.258Z,2.78
2023-06-29T15:30:04.646Z,2.80
2023-06-29T15:33:11.494Z,3.03
2023-06-29T15:36:19.464Z,3.03
2023-06-29T15:39:28.448Z,3.22
2023-06-29T15:42:40.278Z,3.20
2023-06-29T15:45:53.152Z,3.00
2023-06-29T15:49:01.560Z,3.38
2023-06-29T15:52:06.978Z,3.40
2023-06-29T15:55:16.021Z,2.83
2023-06-29T15:58:21.460Z,2.90
2023-06-29T16:01:32.005Z,2.88
2023-06-29T16:04:39.952Z,3.00
2023-06-29T16:07:45.596Z,3.42
2023-06-29T16:10:50.790Z,2.85
2023-06-29T16:13:57.247Z,2.83
2023-06-29T16:17:11.734Z,3.00
2023-06-29T16:20:20.043Z,2.70
2023-06-29T16:23:25.173Z,2.75
2023-06-29T16:26:31.009Z,3.72
2023-06-29T16:29:37.655Z,3.10
2023-06-29T16:32:49.154Z,3.10
2023-06-29T16:35:58.101Z,2.63
2023-06-29T16:39:04.443Z,2.55
2023-06-29T16:42:10.787Z,2.85
2023-06-29T16:45:16.739Z,2.75
2023-06-29T16:48:26.394Z,3.00
2023-06-29T16:51:37.612Z,2.72
2023-06-29T16:54:42.809Z,3.70
2023-06-29T16:57:49.477Z,4.22
2023-06-29T17:00:54.822Z,3.75
2023-06-29T17:04:23.979Z,3.90
2023-06-29T17:07:32.917Z,3.25
2023-06-29T17:10:38.837Z,4.28
2023-06-29T17:13:44.135Z,3.10
2023-06-29T17:16:54.569Z,3.28
2023-06-29T17:20:04.340Z,3.53
2023-06-29T17:23:09.981Z,3.30
2023-06-29T17:26:16.345Z,3.70
2023-06-29T17:29:22.059Z,3.20
2023-06-29T17:32:30.659Z,3.05
2023-06-29T17:35:44.579Z,3.28
2023-06-29T17:38:57.363Z,3.47
2023-06-29T17:45:36.069Z,3.85
2023-06-29T17:48:43.438Z,3.80
2023-06-29T17:51:51.900Z,3.17
2023-06-29T17:54:57.974Z,3.40
2023-06-29T17:58:03.372Z,3.70
2023-06-29T18:01:10.560Z,3.30
2023-06-29T18:04:16.218Z,3.10
2023-06-29T18:07:24.687Z,3.00
2023-06-29T18:10:29.902Z,3.72
2023-06-29T18:13:35.679Z,5.00
2023-06-29T18:16:43.313Z,4.05
2023-06-29T18:19:49.027Z,3.30
2023-06-29T18:22:58.093Z,2.67
2023-06-29T18:26:03.813Z,2.90
2023-06-29T18:29:10.150Z,3.00
2023-06-29T18:32:15.761Z,2.72
2023-06-29T18:35:21.251Z,2.92
2023-06-29T18:38:32.620Z,2.70
2023-06-29T18:41:38.322Z,3.10
2023-06-29T18:44:44.276Z,2.85
2023-06-29T18:47:50.842Z,3.10
2023-06-29T18:50:58.020Z,2.80
2023-06-29T18:54:06.185Z,3.15
2023-06-29T18:57:14.685Z,2.90
2023-06-29T19:00:22.419Z,3.08
2023-06-29T19:03:31.637Z,3.25
2023-06-29T19:06:37.795Z,3.50
2023-06-29T19:09:51.012Z,2.80
2023-06-29T19:12:56.801Z,2.75
2023-06-29T19:16:04.147Z,3.20
2023-06-29T19:19:09.343Z,3.33
2023-06-29T19:22:14.870Z,2.92
2023-06-29T19:25:22.669Z,2.65
2023-06-29T19:28:28.164Z,2.92
2023-06-29T19:31:33.427Z,2.75
2023-06-29T19:34:38.950Z,2.60
2023-06-29T19:37:44.724Z,2.80
2023-06-29T19:40:55.532Z,2.53
2023-06-29T19:44:01.248Z,2.72
2023-06-29T19:47:07.415Z,3.10
2023-06-29T19:50:13.057Z,2.90
2023-06-29T19:53:20.027Z,2.92
2023-06-29T19:56:27.735Z,2.58
2023-06-29T19:59:33.835Z,2.80
2023-06-29T20:02:39.292Z,3.03
2023-06-29T20:05:45.887Z,2.95
2023-06-29T20:08:51.257Z,3.10
2023-06-29T20:11:59.341Z,2.78
2023-06-29T20:15:05.380Z,3.42
2023-06-29T20:18:11.135Z,3.10
2023-06-29T20:21:16.424Z,2.95
2023-06-29T20:24:21.901Z,3.92
2023-06-29T20:27:29.766Z,3.47
2023-06-29T20:30:35.926Z,2.83
2023-06-29T20:33:41.136Z,3.78
2023-06-29T20:36:46.544Z,3.70
2023-06-29T20:39:51.572Z,3.25
2023-06-29T20:43:00.200Z,3.70
2023-06-29T20:46:06.796Z,3.67
2023-06-29T20:49:12.444Z,3.20
2023-06-29T20:52:20.570Z,4.20
2023-06-29T20:55:26.127Z,4.35
2023-06-29T20:58:38.644Z,4.70
2023-06-29T21:01:46.137Z,4.03
2023-06-29T21:04:54.304Z,5.70
2023-06-29T21:07:59.839Z,4.68
2023-06-29T21:11:06.509Z,4.32
2023-06-29T21:14:17.552Z,4.70
2023-06-29T21:17:26.056Z,4.20
2023-06-29T21:20:32.078Z,4.10
2023-06-29T21:23:37.652Z,4.22
2023-06-29T21:26:43.460Z,3.80
2023-06-29T21:29:52.026Z,3.92
2023-06-29T21:33:00.217Z,4.10
2023-06-29T21:36:05.991Z,3.97
2023-06-29T21:39:13.679Z,3.95
2023-06-29T21:42:19.947Z,4.15
2023-06-29T21:45:31.596Z,3.85
2023-06-29T21:48:40.925Z,4.00
2023-06-29T21:51:47.771Z,3.60
2023-06-29T21:54:53.179Z,3.70
2023-06-29T21:57:58.689Z,3.45
2023-06-29T22:01:06.285Z,3.10
2023-06-29T22:04:14.796Z,3.17
2023-06-29T22:07:20.004Z,3.55
2023-06-29T22:10:26.475Z,3.45
2023-06-29T22:13:31.880Z,3.22
2023-06-29T22:16:40.940Z,3.05
2023-06-29T22:19:48.332Z,3.60
2023-06-29T22:22:56.085Z,3.00
2023-06-29T22:26:02.358Z,3.30
2023-06-29T22:29:13.299Z,2.90
2023-06-29T22:32:22.865Z,3.13
2023-06-29T22:35:28.851Z,3.20
2023-06-29T22:38:34.070Z,2.90
2023-06-29T22:41:41.859Z,3.10
2023-06-29T22:44:48.513Z,3.40
2023-06-29T22:47:56.841Z,3.45
2023-06-29T22:51:02.023Z,3.10
2023-06-29T22:54:10.153Z,3.40
2023-06-29T22:57:15.288Z,3.40
2023-06-29T23:00:21.589Z,3.05
2023-06-29T23:03:29.673Z,3.10
2023-06-29T23:06:40.143Z,3.30
2023-06-29T23:09:48.144Z,3.17
2023-06-29T23:12:53.744Z,3.38
2023-06-29T23:16:01.146Z,3.00
2023-06-29T23:19:09.800Z,3.25
2023-06-29T23:22:16.572Z,3.63
2023-06-29T23:25:22.422Z,3.30
2023-06-29T23:28:27.854Z,3.53
2023-06-29T23:31:33.454Z,3.42
2023-06-29T23:34:42.118Z,3.30
2023-06-29T23:37:48.171Z,3.67
2023-06-29T23:40:53.453Z,3.13
2023-06-29T23:44:06.004Z,3.33
2023-06-29T23:50:22.051Z,3.58
2023-06-29T23:53:27.850Z,3.97
2023-06-29T23:56:33.770Z,3.25
2023-06-29T23:59:39.204Z,3.97
